Bodega Bay, California
Current Conditions -  °F | °C
As of 2:26 AM on Monday 26 Jan 2015 (Local Time) from KSTS Reporting Station
Haze Haze  
Wind Chill: 39°   Ceiling: Unl
Heat Index: 39°   Visibility: 1.2mi
Dew Point: 37°   Wind: 0mph
Humidity: 93%   Direction: NA
Pressure: 30.04"   Gusts: NA
Location:  38.32°N, 123.03°W
Report Text: KSTS 261026Z AUTO 00000KT 1 1/4SM BR SCT002 04/03 A3004 RMK AO2
Loading
Personal Weather Stations






























Interactive Weather Map New forecast layout! Learn more

10-Day Weather Forecast

Advertisements
Track Severe Weather on mobile